الصفحة الرئيسية
METAR-TAF:

METAR-TAF

مطار :

تاونسفيل, أستراليا

دائرة عرض: 19-15S, خط طول: 146-45E, ارتفاع: 6 متر

مراقبة الطقس الحالي

تاريخ ووقت الإصدار 39 دقيقة قبل الساعة 21:30UTC
رياح هادئة
درجة الحرارة 13°درجة مئوية
الرطوبة 94%
ضغط 1019 hPa
الرؤية 10 كم أو أكثر
الغيوم لا تقل 1500 م ولا وجود لمزنة ركامية السحاب الأسود

METAR: YBTL 252130Z 00000KT CAVOK 13/12 Q1019 NOSIG

زمن: 08:09 (22:09 UTC)

توقعات

تاريخ ووقت الإصدار 5ساعات و 15 دقيقة قبل الساعة 16:54UTC
التوقعات صالحة من25 الساعة 18 UTC إلى 26 الساعة 18 UTC
ريح 3 عقدةمن اتجاهات متغيرة
الرؤية 10 كم أو أكثر
الغيوم لا تقل 1500 م ولا وجود لمزنة ركامية السحاب الأسود
من 26 الساعة 0300 UTC
ريح 9 عقدة من الشمال الشرقي
الرؤية 10 كم أو أكثر
الغيوم لا تقل 1500 م ولا وجود لمزنة ركامية السحاب الأسود
من 26 الساعة 0900 UTC
ريح 6 عقدة من الجنوب
الرؤية 10 كم أو أكثر
الغيوم لا تقل 1500 م ولا وجود لمزنة ركامية السحاب الأسود

TAF: YBTL 251654Z 2518/2618 VRB03KT CAVOK FM260300 05009KT CAVOK FM260900 17006KT CAVOK

أرصاد الطقس والتوقعات من أكثر من 4000 مطار (تقارير الطقس للمطار METAR والتنبؤ بالطقس بالمطارTAF).

المحطات المتاحة هي النقط الصفراء والحمراء على الخريطة.

حرك المؤشر فوق النقطة لمعرفة اسم المحطة.

ثم انقر لمعرفة أرصاد وتوقعات الطقس.

لتغيير الخارطة: اضغط على الأزرار الخضراء مع رمز الصليب الأسود للتكبير. على الزر الأخضر مع شرطة للتصغير، أو على الأسهم الخضراء للخرائط المجاورة.


METAR-TAF: